Chart 1
 

(A maximum of 50 rows are displayed here. Use "Export Data" to see all rows in the date range.)
Date Collected Temp WindChill
(Celcius)
WindSpeed
(km/hr)
Gust
(km/hr)
Wind Direction
(degrees)
2021-09-24 12:00 14.0 12.1 5 12 2
2021-09-24 11:00 12.5 11.1 4 8 34
2021-09-24 10:00 8.9 7.7 4 8 52
2021-09-24 09:00 7.6 5.9 4 8 58
2021-09-24 08:00 5.3 3.7 4 8 45
2021-09-24 07:00 5.1 4.8 2 5 55
2021-09-24 06:00 5.3 5.4 2 5 31
2021-09-24 05:00 7.0 7.0 1 3 214
2021-09-24 04:00 8.4 7.9 3 8 188
2021-09-24 03:00 9.1 6.9 5 13 204
2021-09-24 02:00 9.0 4.5 7 16 206
2021-09-24 01:00 8.9 5.4 6 15 201
2021-09-24 00:00 9.2 3.1 10 23 209
2021-09-23 23:00 8.4 6.7 4 10 197
2021-09-23 22:00 7.5 5.8 4 13 187
2021-09-23 21:00 8.6 6.3 5 15 201
2021-09-23 20:00 8.8 1.5 11 28 199
2021-09-23 19:00 9.1 4.2 7 20 205
2021-09-23 18:00 8.6 7.8 2 13 216
2021-09-23 17:00 8.1 3.2 8 20 193
2021-09-23 16:00 8.7 6.3 5 15 264
2021-09-23 15:00 9.6 5.6 7 19 222
2021-09-23 14:00 9.7 2.6 10 25 207
2021-09-23 13:00 10.3 4.0 10 23 206
2021-09-23 12:00 10.6 6.2 7 15 208
2021-09-23 11:00 9.8 8.1 4 11 199
2021-09-23 10:00 9.6 9.2 2 8 200
2021-09-23 09:00 9.5 8.1 4 11 197
2021-09-23 08:00 9.7 9.0 3 10 222
2021-09-23 07:00 11.2 10.3 3 8 234
2021-09-23 06:00 12.8 12.2 3 10 345
2021-09-23 05:00 13.2 11.6 4 13 342
2021-09-23 04:00 13.0 12.3 3 10 356
2021-09-23 03:00 13.4 11.8 5 16 353
2021-09-23 02:00 14.4 11.4 6 20 348
2021-09-23 01:00 14.2 11.6 6 16 12
2021-09-23 00:00 14.2 12.1 5 15 350
2021-09-22 23:00 13.5 11.7 5 13 347
2021-09-22 22:00 13.6 12.9 3 8 1
2021-09-22 21:00 13.3 11.6 5 10 50
2021-09-22 20:00 14.1 12.8 4 13 20
2021-09-22 19:00 14.7 13.1 5 16 348
2021-09-22 18:00 15.3 13.8 4 14 359
2021-09-22 17:00 15.2 12.9 6 18 343
2021-09-22 16:00 15.5 13.5 5 16 336
2021-09-22 15:00 16.3 12.9 7 25 345
2021-09-22 14:00 16.8 13.9 7 20 21
2021-09-22 13:00 16.3 12.9 7 19 3
2021-09-22 12:00 15.8 13.2 6 16 19
2021-09-22 11:00 15.2 12.1 7 15 16